createdAt,value
2023-01-28T00:00:18.914Z,0.40
2023-01-28T00:02:50.897Z,0.40
2023-01-28T00:05:20.378Z,0.40
2023-01-28T00:07:50.835Z,0.50
2023-01-28T00:10:20.645Z,0.50
2023-01-28T00:12:50.942Z,0.50
2023-01-28T00:15:20.414Z,0.40
2023-01-28T00:17:51.263Z,0.50
2023-01-28T00:20:20.901Z,0.40
2023-01-28T00:22:52.156Z,0.50
2023-01-28T00:25:21.755Z,0.40
2023-01-28T00:27:51.654Z,0.40
2023-01-28T00:30:21.625Z,0.43
2023-01-28T00:32:52.459Z,0.40
2023-01-28T00:35:22.351Z,0.50
2023-01-28T00:37:51.907Z,0.50
2023-01-28T00:40:22.393Z,0.50
2023-01-28T00:42:51.883Z,0.50
2023-01-28T00:45:21.591Z,0.40
2023-01-28T00:47:52.527Z,0.50
2023-01-28T00:50:22.675Z,0.50
2023-01-28T00:52:52.154Z,0.40
2023-01-28T00:55:21.815Z,0.50
2023-01-28T00:57:51.652Z,0.40
2023-01-28T01:00:21.855Z,0.50
2023-01-28T01:02:53.249Z,0.50
2023-01-28T01:05:22.726Z,0.40
2023-01-28T01:07:52.206Z,0.50
2023-01-28T01:10:22.334Z,0.50
2023-01-28T01:12:51.843Z,0.50
2023-01-28T01:15:22.479Z,0.50
2023-01-28T01:17:53.539Z,0.50
2023-01-28T01:20:24.303Z,0.50
2023-01-28T01:22:53.996Z,0.40
2023-01-28T01:25:23.816Z,0.50
2023-01-28T01:27:53.331Z,0.40
2023-01-28T01:30:22.848Z,0.43
2023-01-28T01:32:53.722Z,0.40
2023-01-28T01:35:23.328Z,0.40
2023-01-28T01:37:52.864Z,0.50
2023-01-28T01:40:22.401Z,0.50
2023-01-28T01:42:51.932Z,0.40
2023-01-28T01:45:21.516Z,0.40
2023-01-28T01:47:56.043Z,0.50
2023-01-28T01:50:29.636Z,0.43
2023-01-28T01:53:00.923Z,0.40
2023-01-28T01:55:33.126Z,0.43
2023-01-28T01:58:04.541Z,0.50
2023-01-28T02:00:34.462Z,0.50
2023-01-28T02:03:04.233Z,0.40
2023-01-28T02:05:35.133Z,0.40
2023-01-28T02:08:19.328Z,0.40
2023-01-28T02:10:50.112Z,0.47
2023-01-28T02:13:21.169Z,0.50
2023-01-28T02:15:51.119Z,0.40
2023-01-28T02:18:20.629Z,0.40
2023-01-28T02:21:06.516Z,0.50
2023-01-28T02:23:42.736Z,0.40
2023-01-28T02:26:28.278Z,0.40
2023-01-28T02:29:02.298Z,0.50
2023-01-28T02:31:34.210Z,0.50
2023-01-28T02:34:08.669Z,0.50
2023-01-28T02:36:41.326Z,0.50
2023-01-28T02:39:15.448Z,0.40
2023-01-28T02:41:48.662Z,0.50
2023-01-28T02:44:19.866Z,0.50
2023-01-28T02:47:06.761Z,0.50
2023-01-28T02:49:38.727Z,0.40
2023-01-28T02:52:45.000Z,0.50
2023-01-28T02:55:17.359Z,0.50
2023-01-28T02:57:50.261Z,0.50
2023-01-28T03:00:23.894Z,0.50
2023-01-28T03:02:55.432Z,0.50
2023-01-28T03:05:27.658Z,0.43
2023-01-28T03:07:57.418Z,0.50
2023-01-28T03:10:27.348Z,0.50
2023-01-28T03:13:15.523Z,0.50
2023-01-28T03:16:05.780Z,0.50
2023-01-28T03:18:56.887Z,0.50
2023-01-28T03:21:47.967Z,0.50
2023-01-28T03:24:39.126Z,0.50
2023-01-28T03:27:31.763Z,0.50
2023-01-28T03:30:28.904Z,0.40
2023-01-28T03:33:17.567Z,0.50
2023-01-28T03:36:05.129Z,0.50
2023-01-28T03:38:42.048Z,0.50
2023-01-28T03:41:13.847Z,0.50
2023-01-28T03:43:45.478Z,0.47
2023-01-28T03:46:38.072Z,0.50
2023-01-28T03:49:09.783Z,0.50
2023-01-28T03:51:39.305Z,0.50
2023-01-28T03:54:08.839Z,0.40
2023-01-28T03:56:40.540Z,0.40
2023-01-28T03:59:10.184Z,0.50
2023-01-28T04:01:39.780Z,0.40
2023-01-28T04:04:22.963Z,0.40
2023-01-28T04:06:53.058Z,0.50
2023-01-28T04:09:28.348Z,0.40
2023-01-28T04:12:04.541Z,0.40
2023-01-28T04:14:40.201Z,0.50
2023-01-28T04:17:13.914Z,0.50
2023-01-28T04:19:44.870Z,0.50
2023-01-28T04:22:14.443Z,0.50
2023-01-28T04:24:45.436Z,0.50
2023-01-28T04:27:15.024Z,0.40
2023-01-28T04:29:44.634Z,0.50
2023-01-28T04:32:32.388Z,0.50
2023-01-28T04:35:32.606Z,0.50
2023-01-28T04:38:08.711Z,0.50
2023-01-28T04:41:04.291Z,0.50
2023-01-28T04:43:36.222Z,0.50
2023-01-28T04:46:32.333Z,0.50
2023-01-28T04:49:18.892Z,0.50
2023-01-28T04:52:16.229Z,0.50
2023-01-28T04:55:06.513Z,0.50
2023-01-28T04:57:36.023Z,0.50
2023-01-28T05:00:08.130Z,0.50
2023-01-28T05:02:37.697Z,0.50
2023-01-28T05:05:09.010Z,0.50
2023-01-28T05:07:52.072Z,0.50
2023-01-28T05:10:21.850Z,0.50
2023-01-28T05:12:52.165Z,0.60
2023-01-28T05:15:22.114Z,0.50
2023-01-28T05:17:52.442Z,0.50
2023-01-28T05:20:24.791Z,0.50
2023-01-28T05:22:57.276Z,0.50
2023-01-28T05:25:30.962Z,0.50
2023-01-28T05:28:00.512Z,0.50
2023-01-28T05:30:30.172Z,0.50
2023-01-28T05:32:59.743Z,0.50
2023-01-28T05:35:29.274Z,0.50
2023-01-28T05:38:00.188Z,0.40
2023-01-28T05:40:29.704Z,0.50
2023-01-28T05:43:00.072Z,0.40
2023-01-28T05:45:42.449Z,0.50
2023-01-28T05:48:24.417Z,0.50
2023-01-28T05:51:12.002Z,0.50
2023-01-28T05:53:46.350Z,0.50
2023-01-28T05:56:15.827Z,0.50
2023-01-28T05:58:45.351Z,0.50
2023-01-28T06:01:14.998Z,0.50
2023-01-28T06:03:51.600Z,0.50
2023-01-28T06:06:21.590Z,0.40
2023-01-28T06:08:52.440Z,0.50
2023-01-28T06:11:28.535Z,0.50
2023-01-28T06:14:06.663Z,0.50
2023-01-28T06:17:05.180Z,0.40
2023-01-28T06:19:41.160Z,0.47
2023-01-28T06:22:11.596Z,0.40
2023-01-28T06:24:42.456Z,0.50
2023-01-28T06:27:11.970Z,0.47
2023-01-28T06:29:41.496Z,0.50
2023-01-28T06:32:11.125Z,0.50
2023-01-28T06:34:41.021Z,0.50
2023-01-28T06:37:10.516Z,0.50
2023-01-28T06:39:39.992Z,0.50
2023-01-28T06:42:10.917Z,0.50
2023-01-28T06:44:40.445Z,0.50
2023-01-28T06:47:10.934Z,0.50
2023-01-28T06:49:40.475Z,0.50
2023-01-28T06:52:09.935Z,0.50
2023-01-28T06:54:39.488Z,0.50
2023-01-28T06:57:08.991Z,0.50
2023-01-28T06:59:39.826Z,0.50
2023-01-28T07:02:09.321Z,0.50
2023-01-28T07:04:38.831Z,0.50
2023-01-28T07:07:08.386Z,0.50
2023-01-28T07:09:37.799Z,0.50
2023-01-28T07:12:07.651Z,0.50
2023-01-28T07:14:37.043Z,0.40
2023-01-28T07:17:07.862Z,0.50
2023-01-28T07:19:37.324Z,0.50
2023-01-28T07:22:06.823Z,0.50
2023-01-28T07:24:36.288Z,0.50
2023-01-28T07:27:05.780Z,0.40
2023-01-28T07:29:35.242Z,0.50
2023-01-28T07:32:07.306Z,0.50
2023-01-28T07:34:39.962Z,0.50
2023-01-28T07:37:09.417Z,0.50
2023-01-28T07:39:38.881Z,0.50
2023-01-28T07:42:08.328Z,0.50
2023-01-28T07:44:40.159Z,0.50
2023-01-28T07:47:09.671Z,0.50
2023-01-28T07:49:40.965Z,0.50
2023-01-28T07:52:11.210Z,0.50
2023-01-28T07:54:40.753Z,0.50
2023-01-28T07:57:10.944Z,0.50
2023-01-28T07:59:40.417Z,0.50
2023-01-28T08:02:13.308Z,0.43
2023-01-28T08:04:44.229Z,0.50
2023-01-28T08:07:13.780Z,0.50
2023-01-28T08:09:43.265Z,0.50
2023-01-28T08:12:12.767Z,0.50
2023-01-28T08:14:42.228Z,0.40
2023-01-28T08:17:11.938Z,0.40
2023-01-28T08:19:41.421Z,0.50
2023-01-28T08:22:12.303Z,0.50
2023-01-28T08:24:41.777Z,0.40
2023-01-28T08:27:11.284Z,0.50
2023-01-28T08:29:40.733Z,0.40
2023-01-28T08:32:10.193Z,0.43
2023-01-28T08:34:39.643Z,0.43
2023-01-28T08:37:09.186Z,0.47
2023-01-28T08:39:40.055Z,0.50
2023-01-28T08:42:09.494Z,0.40
2023-01-28T08:44:38.955Z,0.50
2023-01-28T08:47:08.455Z,0.50
2023-01-28T08:49:37.977Z,0.40
2023-01-28T08:52:07.461Z,0.50
2023-01-28T08:54:36.966Z,0.40
2023-01-28T08:57:07.874Z,0.50
2023-01-28T08:59:40.725Z,0.50
2023-01-28T09:02:25.503Z,0.50
2023-01-28T09:05:00.163Z,0.40
2023-01-28T09:07:29.799Z,0.40
2023-01-28T09:09:59.522Z,0.40
2023-01-28T09:12:30.391Z,0.40
2023-01-28T09:14:59.889Z,0.40
2023-01-28T09:17:29.377Z,0.50
2023-01-28T09:19:58.884Z,0.40
2023-01-28T09:22:28.426Z,0.40
2023-01-28T09:24:57.898Z,0.50
2023-01-28T09:27:27.503Z,0.50
2023-01-28T09:29:58.348Z,0.50
2023-01-28T09:32:27.884Z,0.40
2023-01-28T09:34:57.336Z,0.40
2023-01-28T09:37:26.819Z,0.40
2023-01-28T09:39:56.334Z,0.40
2023-01-28T09:42:37.361Z,0.40
2023-01-28T09:45:11.996Z,0.40
2023-01-28T09:47:42.980Z,0.40
2023-01-28T09:50:16.713Z,0.40
2023-01-28T09:52:47.037Z,0.50
2023-01-28T09:55:20.302Z,0.40
2023-01-28T09:57:52.113Z,0.40
2023-01-28T10:00:24.597Z,0.40
2023-01-28T10:03:08.443Z,0.40
2023-01-28T10:05:41.296Z,0.40
2023-01-28T10:08:16.485Z,0.40
2023-01-28T10:10:48.920Z,0.40
2023-01-28T10:13:22.072Z,0.40
2023-01-28T10:16:00.157Z,0.40
2023-01-28T10:18:35.494Z,0.40
2023-01-28T10:21:09.231Z,0.40
2023-01-28T10:23:43.458Z,0.40
2023-01-28T10:26:18.455Z,0.40
2023-01-28T10:28:50.044Z,0.40
2023-01-28T10:31:21.180Z,0.40
2023-01-28T10:33:50.733Z,0.40
2023-01-28T10:36:20.924Z,0.40
2023-01-28T10:38:50.456Z,0.40
2023-01-28T10:41:22.748Z,0.40
2023-01-28T10:43:52.259Z,0.40
2023-01-28T10:46:25.160Z,0.40
2023-01-28T10:49:01.174Z,0.40
2023-01-28T10:51:34.781Z,0.33
2023-01-28T10:54:04.628Z,0.40
2023-01-28T10:56:35.722Z,0.40
2023-01-28T10:59:05.997Z,0.40
2023-01-28T11:01:45.223Z,0.40
2023-01-28T11:04:19.976Z,0.40
2023-01-28T11:06:56.399Z,0.40
2023-01-28T11:09:27.052Z,0.40
2023-01-28T11:11:56.532Z,0.50
2023-01-28T11:14:27.139Z,0.40
2023-01-28T11:17:00.049Z,0.40
2023-01-28T11:19:33.616Z,0.40
2023-01-28T11:22:03.911Z,0.37
2023-01-28T11:24:35.408Z,0.30
2023-01-28T11:27:13.306Z,0.33
2023-01-28T11:29:42.861Z,0.40
2023-01-28T11:32:20.967Z,0.40
2023-01-28T11:34:51.321Z,0.30
2023-01-28T11:37:22.958Z,0.30
2023-01-28T11:40:02.377Z,0.30
2023-01-28T11:42:32.726Z,0.40
2023-01-28T11:45:02.185Z,0.30
2023-01-28T11:47:39.731Z,0.30
2023-01-28T11:50:25.412Z,0.30
2023-01-28T11:53:06.883Z,0.40
2023-01-28T11:55:43.732Z,0.30
2023-01-28T11:58:20.847Z,0.30
2023-01-28T12:00:54.418Z,0.40
2023-01-28T12:03:36.460Z,0.40
2023-01-28T12:06:14.856Z,0.40
2023-01-28T12:08:47.709Z,0.40
2023-01-28T12:11:44.972Z,0.40
2023-01-28T12:14:20.507Z,0.40
2023-01-28T12:16:58.409Z,0.37
2023-01-28T12:19:35.461Z,0.40
2023-01-28T12:22:14.133Z,0.40
2023-01-28T12:24:51.950Z,0.33
2023-01-28T12:27:28.295Z,0.40
2023-01-28T12:30:00.894Z,0.40
2023-01-28T12:32:39.398Z,0.30
2023-01-28T12:35:24.318Z,0.40
2023-01-28T12:38:01.142Z,0.40
2023-01-28T12:40:44.767Z,0.30
2023-01-28T12:43:17.703Z,0.37
2023-01-28T12:45:48.489Z,0.30
2023-01-28T12:48:20.080Z,0.30
2023-01-28T12:50:53.863Z,0.40
2023-01-28T12:53:26.632Z,0.40
2023-01-28T12:55:58.249Z,0.30
2023-01-28T12:58:33.989Z,0.37
2023-01-28T13:01:06.179Z,0.40
2023-01-28T13:03:38.440Z,0.33
2023-01-28T13:06:12.694Z,0.30
2023-01-28T13:08:42.278Z,0.30
2023-01-28T13:11:14.314Z,0.30
2023-01-28T13:13:44.454Z,0.40
2023-01-28T13:16:14.768Z,0.30
2023-01-28T13:18:45.774Z,0.33
2023-01-28T13:21:18.105Z,0.37
2023-01-28T13:23:48.698Z,0.30
2023-01-28T13:26:31.755Z,0.30
2023-01-28T13:29:19.244Z,0.33
2023-01-28T13:31:52.073Z,0.30
2023-01-28T13:34:30.169Z,0.30
2023-01-28T13:37:04.457Z,0.30
2023-01-28T13:39:37.136Z,0.30
2023-01-28T13:42:11.089Z,0.30
2023-01-28T13:44:40.820Z,0.40
2023-01-28T13:47:18.744Z,0.30
2023-01-28T13:49:50.352Z,0.30
2023-01-28T13:52:25.133Z,0.30
2023-01-28T13:54:57.076Z,0.30
2023-01-28T13:57:56.534Z,0.30
2023-01-28T14:00:27.860Z,0.30
2023-01-28T14:03:10.518Z,0.30
2023-01-28T14:06:03.950Z,0.30
2023-01-28T14:08:45.668Z,0.30
2023-01-28T14:11:26.782Z,0.30
2023-01-28T14:14:13.596Z,0.30
2023-01-28T14:16:52.048Z,0.30
2023-01-28T14:19:22.782Z,0.30
2023-01-28T14:21:52.686Z,0.30
2023-01-28T14:24:23.968Z,0.30
2023-01-28T14:26:57.294Z,0.40
2023-01-28T14:29:37.756Z,0.30
2023-01-28T14:32:10.896Z,0.30
2023-01-28T14:34:43.227Z,0.30
2023-01-28T14:37:15.172Z,0.30
2023-01-28T14:39:49.064Z,0.27
2023-01-28T14:42:22.354Z,0.30
2023-01-28T14:44:57.471Z,0.30
2023-01-28T14:47:34.538Z,0.30
2023-01-28T14:50:19.084Z,0.30
2023-01-28T14:52:58.866Z,0.30
2023-01-28T14:55:36.456Z,0.30
2023-01-28T14:58:08.414Z,0.30
2023-01-28T15:00:39.985Z,0.30
2023-01-28T15:03:26.837Z,0.30
2023-01-28T15:06:07.702Z,0.30
2023-01-28T15:08:40.158Z,0.30
2023-01-28T15:11:14.939Z,0.30
2023-01-28T15:13:46.535Z,0.30
2023-01-28T15:16:19.795Z,0.30
2023-01-28T15:18:50.923Z,0.30
2023-01-28T15:21:24.128Z,0.30
2023-01-28T15:23:55.225Z,0.30
2023-01-28T15:26:27.087Z,0.30
2023-01-28T15:28:57.291Z,0.30
2023-01-28T15:31:28.291Z,0.30
2023-01-28T15:34:01.507Z,0.30
2023-01-28T15:36:31.864Z,0.30
2023-01-28T15:39:01.443Z,0.30
2023-01-28T15:41:34.376Z,0.30
2023-01-28T15:44:04.874Z,0.30
2023-01-28T15:46:34.478Z,0.30
2023-01-28T15:49:05.028Z,0.30
2023-01-28T15:51:35.096Z,0.30
2023-01-28T15:54:06.453Z,0.30
2023-01-28T15:56:37.842Z,0.30
2023-01-28T15:59:10.989Z,0.30
2023-01-28T16:01:40.675Z,0.30
2023-01-28T16:04:23.969Z,0.30
2023-01-28T16:06:54.058Z,0.30
2023-01-28T16:09:25.723Z,0.30
2023-01-28T16:12:02.954Z,0.30
2023-01-28T16:14:33.635Z,0.30
2023-01-28T16:17:03.316Z,0.30
2023-01-28T16:19:35.845Z,0.30
2023-01-28T16:22:05.385Z,0.30
2023-01-28T16:24:36.922Z,0.30
2023-01-28T16:27:08.655Z,0.30
2023-01-28T16:29:38.184Z,0.30
2023-01-28T16:32:22.520Z,0.30
2023-01-28T16:34:52.023Z,0.30
2023-01-28T16:37:21.515Z,0.30
2023-01-28T16:39:51.142Z,0.30
2023-01-28T16:42:22.099Z,0.30
2023-01-28T16:44:51.592Z,0.30
2023-01-28T16:47:21.276Z,0.30
2023-01-28T16:49:50.759Z,0.30
2023-01-28T16:52:20.270Z,0.30
2023-01-28T16:54:49.900Z,0.30
2023-01-28T16:57:20.990Z,0.30
2023-01-28T16:59:51.971Z,0.30
2023-01-28T17:02:22.399Z,0.30
2023-01-28T17:04:51.977Z,0.30
2023-01-28T17:07:21.467Z,0.30
2023-01-28T17:09:50.939Z,0.30
2023-01-28T17:12:20.391Z,0.30
2023-01-28T17:14:49.887Z,0.30
2023-01-28T17:17:20.826Z,0.30
2023-01-28T17:19:50.299Z,0.30
2023-01-28T17:22:19.795Z,0.30
2023-01-28T17:24:49.298Z,0.30
2023-01-28T17:27:18.984Z,0.30
2023-01-28T17:29:48.495Z,0.30
2023-01-28T17:32:18.034Z,0.30
2023-01-28T17:34:50.243Z,0.30
2023-01-28T17:37:23.160Z,0.30
2023-01-28T17:39:52.680Z,0.30
2023-01-28T17:42:22.236Z,0.30
2023-01-28T17:44:51.787Z,0.30
2023-01-28T17:47:21.385Z,0.30
2023-01-28T17:49:52.250Z,0.30
2023-01-28T17:52:21.746Z,0.30
2023-01-28T17:54:51.315Z,0.30
2023-01-28T17:57:20.827Z,0.30
2023-01-28T17:59:50.344Z,0.30
2023-01-28T18:02:19.913Z,0.30
2023-01-28T18:04:49.451Z,0.30
2023-01-28T18:07:20.303Z,0.27
2023-01-28T18:09:50.788Z,0.30
2023-01-28T18:12:20.331Z,0.30
2023-01-28T18:14:49.830Z,0.30
2023-01-28T18:17:19.345Z,0.30
2023-01-28T18:19:48.886Z,0.30
2023-01-28T18:22:19.772Z,0.20
2023-01-28T18:24:49.234Z,0.30
2023-01-28T18:27:20.659Z,0.20
2023-01-28T18:29:52.560Z,0.30
2023-01-28T18:32:22.066Z,0.20
2023-01-28T18:34:51.779Z,0.30
2023-01-28T18:37:22.714Z,0.30
2023-01-28T18:39:52.661Z,0.30
2023-01-28T18:42:22.168Z,0.30
2023-01-28T18:44:51.650Z,0.20
2023-01-28T18:47:21.138Z,0.30
2023-01-28T18:49:50.600Z,0.30
2023-01-28T18:52:20.069Z,0.20
2023-01-28T18:54:50.952Z,0.30
2023-01-28T18:57:21.623Z,0.30
2023-01-28T18:59:51.092Z,0.30
2023-01-28T19:02:20.688Z,0.30
2023-01-28T19:04:50.349Z,0.20
2023-01-28T19:07:19.845Z,0.30
2023-01-28T19:09:50.680Z,0.30
2023-01-28T19:12:22.336Z,0.30
2023-01-28T19:14:52.079Z,0.30
2023-01-28T19:17:21.574Z,0.30
2023-01-28T19:19:51.456Z,0.30
2023-01-28T19:22:21.009Z,0.20
2023-01-28T19:24:51.887Z,0.30
2023-01-28T19:27:21.384Z,0.20
2023-01-28T19:29:50.929Z,0.30
2023-01-28T19:32:20.435Z,0.30
2023-01-28T19:34:49.899Z,0.20
2023-01-28T19:37:19.361Z,0.30
2023-01-28T19:39:48.815Z,0.30
2023-01-28T19:42:20.092Z,0.30
2023-01-28T19:44:49.583Z,0.23
2023-01-28T19:47:19.083Z,0.20
2023-01-28T19:49:48.561Z,0.20
2023-01-28T19:52:18.049Z,0.20
2023-01-28T19:54:48.779Z,0.30
2023-01-28T19:57:19.911Z,0.30
2023-01-28T19:59:49.410Z,0.20
2023-01-28T20:02:18.917Z,0.30
2023-01-28T20:05:00.220Z,0.30
2023-01-28T20:07:30.311Z,0.20
2023-01-28T20:09:59.800Z,0.20
2023-01-28T20:12:30.697Z,0.30
2023-01-28T20:15:00.924Z,0.20
2023-01-28T20:17:30.428Z,0.20
2023-01-28T20:19:59.971Z,0.20
2023-01-28T20:22:29.406Z,0.20
2023-01-28T20:24:58.917Z,0.20
2023-01-28T20:27:28.380Z,0.20
2023-01-28T20:30:06.485Z,0.30
2023-01-28T20:32:36.111Z,0.30
2023-01-28T20:35:05.802Z,0.20
2023-01-28T20:37:35.364Z,0.30
2023-01-28T20:40:04.855Z,0.20
2023-01-28T20:42:34.340Z,0.20
2023-01-28T20:45:03.819Z,0.30
2023-01-28T20:47:34.645Z,0.30
2023-01-28T20:50:04.139Z,0.20
2023-01-28T20:52:33.657Z,0.30
2023-01-28T20:55:03.194Z,0.23
2023-01-28T20:57:32.696Z,0.30
2023-01-28T21:00:02.158Z,0.27
2023-01-28T21:02:31.986Z,0.30
2023-01-28T21:05:03.048Z,0.30
2023-01-28T21:07:32.575Z,0.30
2023-01-28T21:10:02.603Z,0.30
2023-01-28T21:12:32.248Z,0.30
2023-01-28T21:15:01.752Z,0.30
2023-01-28T21:17:32.724Z,0.30
2023-01-28T21:20:04.907Z,0.30
2023-01-28T21:22:34.389Z,0.30
2023-01-28T21:25:05.541Z,0.30
2023-01-28T21:27:35.949Z,0.30
2023-01-28T21:30:05.689Z,0.30
2023-01-28T21:32:35.218Z,0.20
2023-01-28T21:35:06.288Z,0.20
2023-01-28T21:37:35.789Z,0.30
2023-01-28T21:40:05.390Z,0.20
2023-01-28T21:42:35.380Z,0.20
2023-01-28T21:45:05.238Z,0.20
2023-01-28T21:47:34.817Z,0.30
2023-01-28T21:50:06.156Z,0.30
2023-01-28T21:52:35.648Z,0.30
2023-01-28T21:55:05.262Z,0.30
2023-01-28T21:57:34.780Z,0.30
2023-01-28T22:00:04.094Z,0.30
2023-01-28T22:02:41.230Z,0.20
2023-01-28T22:05:12.145Z,0.30
2023-01-28T22:07:41.623Z,0.30
2023-01-28T22:10:11.986Z,0.20
2023-01-28T22:12:41.566Z,0.20
2023-01-28T22:15:11.469Z,0.30
2023-01-28T22:17:40.948Z,0.30
2023-01-28T22:20:12.804Z,0.30
2023-01-28T22:22:42.331Z,0.20
2023-01-28T22:25:11.994Z,0.30
2023-01-28T22:27:41.466Z,0.20
2023-01-28T22:30:11.657Z,0.30
2023-01-28T22:32:41.202Z,0.30
2023-01-28T22:35:12.129Z,0.30
2023-01-28T22:37:41.614Z,0.30
2023-01-28T22:40:11.629Z,0.30
2023-01-28T22:42:41.123Z,0.30
2023-01-28T22:45:11.139Z,0.30
2023-01-28T22:47:40.634Z,0.20
2023-01-28T22:50:12.453Z,0.30
2023-01-28T22:52:41.927Z,0.20
2023-01-28T22:55:11.862Z,0.30
2023-01-28T22:57:41.356Z,0.30
2023-01-28T23:00:12.867Z,0.30
2023-01-28T23:02:42.397Z,0.23
2023-01-28T23:05:13.441Z,0.30
2023-01-28T23:07:42.954Z,0.30
2023-01-28T23:10:13.398Z,0.20
2023-01-28T23:12:44.103Z,0.20
2023-01-28T23:15:31.592Z,0.30
2023-01-28T23:18:18.864Z,0.23
2023-01-28T23:21:07.216Z,0.30
2023-01-28T23:23:54.504Z,0.20
2023-01-28T23:26:24.000Z,0.20
2023-01-28T23:28:53.946Z,0.23
2023-01-28T23:31:23.589Z,0.20
2023-01-28T23:33:53.163Z,0.30
2023-01-28T23:36:23.997Z,0.30
2023-01-28T23:38:53.456Z,0.30
2023-01-28T23:41:22.945Z,0.20
2023-01-28T23:43:52.497Z,0.30
2023-01-28T23:46:33.914Z,0.30
2023-01-28T23:49:08.748Z,0.30
2023-01-28T23:51:39.619Z,0.20
2023-01-28T23:54:09.106Z,0.20
2023-01-28T23:56:39.160Z,0.20
2023-01-28T23:59:08.623Z,0.30
